TimeMST,TemperatureF,Dew PointF,Humidity,Sea Level PressureIn,VisibilityMPH,Wind Direction,Wind SpeedMPH,Gust SpeedMPH,PrecipitationIn,Events,Conditions,WindDirDegrees,DateUTC
12:15 AM,31.6,22.5,69,29.95,-9999.0,South,3.5,-,N/A,,Clear,170,2013-12-03 07:15:00
12:35 AM,30.7,22.5,71,29.96,-9999.0,Calm,Calm,-,N/A,,Clear,0,2013-12-03 07:35:00
12:55 AM,27.0,22.3,83,29.95,-9999.0,South,3.5,-,N/A,,Clear,190,2013-12-03 07:55:00
1:15 AM,26.8,22.1,83,29.94,-9999.0,ESE,3.5,-,N/A,,Clear,110,2013-12-03 08:15:00
1:35 AM,26.6,22.5,84,29.93,-9999.0,Calm,Calm,-,N/A,,Clear,0,2013-12-03 08:35:00
1:55 AM,31.1,22.5,70,29.92,-9999.0,SSE,9.2,-,N/A,,Clear,150,2013-12-03 08:55:00
2:15 AM,30.6,22.8,73,29.91,-9999.0,South,4.6,-,N/A,,Clear,190,2013-12-03 09:15:00
2:35 AM,30.6,22.6,72,29.90,-9999.0,South,6.9,-,N/A,,Clear,170,2013-12-03 09:35:00
2:55 AM,32.2,22.6,68,29.89,-9999.0,SE,10.4,-,N/A,,Clear,140,2013-12-03 09:55:00
3:15 AM,32.0,22.6,68,29.89,-9999.0,SE,8.1,-,N/A,,Clear,140,2013-12-03 10:15:00
3:35 AM,30.9,22.5,71,29.88,-9999.0,SSE,6.9,-,N/A,,Clear,150,2013-12-03 10:35:00
3:55 AM,31.8,22.3,68,29.87,-9999.0,SE,6.9,-,N/A,,Clear,140,2013-12-03 10:55:00
4:15 AM,34.2,22.1,61,29.85,-9999.0,ESE,9.2,-,N/A,,Clear,120,2013-12-03 11:15:00
4:35 AM,34.5,21.7,60,29.85,-9999.0,ESE,6.9,-,N/A,,Clear,120,2013-12-03 11:35:00
4:55 AM,33.1,21.6,63,29.86,-9999.0,SE,5.8,-,N/A,,Clear,130,2013-12-03 11:55:00
5:15 AM,34.2,21.4,60,29.86,-9999.0,SE,5.8,9.2,N/A,,Clear,130,2013-12-03 12:15:00
5:35 AM,33.8,20.7,59,29.87,-9999.0,ESE,4.6,-,N/A,,Clear,110,2013-12-03 12:35:00
5:55 AM,33.6,20.3,58,29.86,-9999.0,SE,5.8,-,N/A,,Clear,130,2013-12-03 12:55:00
6:15 AM,33.3,20.3,59,29.86,-9999.0,East,6.9,-,N/A,,Clear,100,2013-12-03 13:15:00
6:35 AM,42.3,16.7,36,29.86,-9999.0,ESE,5.8,-,N/A,,Clear,120,2013-12-03 13:35:00
6:55 AM,44.1,14.5,30,29.86,-9999.0,Calm,Calm,-,N/A,,Clear,0,2013-12-03 13:55:00
7:15 AM,43.3,14.4,31,29.87,-9999.0,South,3.5,-,N/A,,Clear,190,2013-12-03 14:15:00
7:35 AM,37.8,18.0,45,29.87,-9999.0,SSE,5.8,-,N/A,,Clear,150,2013-12-03 14:35:00
7:55 AM,44.6,14.5,30,29.86,-9999.0,South,3.5,-,N/A,,Clear,190,2013-12-03 14:55:00
8:15 AM,46.2,14.7,28,29.87,-9999.0,SSW,8.1,-,N/A,,Clear,210,2013-12-03 15:15:00
8:35 AM,44.2,17.4,34,29.87,-9999.0,ESE,4.6,-,N/A,,Clear,110,2013-12-03 15:35:00
8:55 AM,45.5,18.7,34,29.86,-9999.0,ESE,6.9,-,N/A,,Clear,110,2013-12-03 15:55:00
9:15 AM,47.3,19.0,33,29.86,-9999.0,ESE,11.5,-,N/A,,Clear,120,2013-12-03 16:15:00
9:35 AM,49.5,17.8,29,29.86,-9999.0,East,8.1,-,N/A,,Clear,100,2013-12-03 16:35:00
9:55 AM,52.7,13.5,21,29.86,-9999.0,SW,5.8,19.6,N/A,,Clear,220,2013-12-03 16:55:00
10:15 AM,52.9,13.6,21,29.85,-9999.0,SW,4.6,-,N/A,,Clear,230,2013-12-03 17:15:00
10:35 AM,53.6,13.1,20,29.84,-9999.0,West,4.6,-,N/A,,Clear,260,2013-12-03 17:35:00
10:55 AM,55.0,10.8,17,29.82,-9999.0,West,15.0,19.6,N/A,,Clear,260,2013-12-03 17:55:00
11:15 AM,56.5,10.8,16,29.81,-9999.0,WSW,25.3,32.2,N/A,,Clear,240,2013-12-03 18:15:00
11:35 AM,56.3,10.4,16,29.80,-9999.0,West,18.4,26.5,N/A,,Clear,260,2013-12-03 18:35:00
11:55 AM,55.6,10.0,16,29.78,-9999.0,West,21.9,43.7,N/A,,Clear,270,2013-12-03 18:55:00
12:15 PM,55.9,11.5,17,29.76,-9999.0,West,20.7,34.5,N/A,,Clear,270,2013-12-03 19:15:00
12:35 PM,55.4,11.3,17,29.75,-9999.0,WSW,19.6,34.5,N/A,,Clear,250,2013-12-03 19:35:00
12:55 PM,55.6,11.5,17,29.74,-9999.0,West,25.3,33.4,N/A,,Clear,260,2013-12-03 19:55:00
1:15 PM,56.1,12.0,17,29.74,-9999.0,West,13.8,31.1,N/A,,Clear,270,2013-12-03 20:15:00
1:35 PM,56.3,12.6,18,29.72,-9999.0,West,18.4,39.1,N/A,,Clear,260,2013-12-03 20:35:00
1:55 PM,57.2,13.6,18,29.71,-9999.0,West,10.4,29.9,N/A,,Clear,270,2013-12-03 20:55:00
2:15 PM,57.2,13.1,18,29.71,-9999.0,West,20.7,32.2,N/A,,Clear,260,2013-12-03 21:15:00
2:35 PM,57.2,13.8,18,29.71,-9999.0,West,17.3,33.4,N/A,,Clear,260,2013-12-03 21:35:00
2:55 PM,56.5,13.5,18,29.70,-9999.0,West,29.9,42.6,N/A,,Clear,260,2013-12-03 21:55:00
3:15 PM,55.8,13.6,19,29.69,-9999.0,WSW,20.7,35.7,N/A,,Clear,250,2013-12-03 22:15:00
3:35 PM,55.4,12.6,18,29.69,-9999.0,WSW,23.0,44.9,N/A,,Clear,250,2013-12-03 22:35:00
3:55 PM,54.9,14.7,21,29.69,-9999.0,West,24.2,33.4,N/A,,Clear,260,2013-12-03 22:55:00
4:15 PM,53.6,14.9,22,29.69,-9999.0,WSW,16.1,33.4,N/A,,Clear,250,2013-12-03 23:15:00
4:35 PM,51.3,15.8,25,29.69,-9999.0,WSW,8.1,18.4,N/A,,Clear,250,2013-12-03 23:35:00
4:55 PM,50.0,16.5,26,29.69,-9999.0,West,13.8,24.2,N/A,,Clear,270,2013-12-03 23:55:00
5:15 PM,49.6,16.5,27,29.68,-9999.0,WSW,19.6,32.2,N/A,,Clear,240,2013-12-04 00:15:00
5:35 PM,48.9,17.2,28,29.68,-9999.0,WSW,19.6,33.4,N/A,,Clear,240,2013-12-04 00:35:00
5:55 PM,48.9,16.7,28,29.68,-9999.0,WSW,26.5,43.7,N/A,,Clear,240,2013-12-04 00:55:00
6:15 PM,48.2,16.2,28,29.69,-9999.0,WSW,26.5,38.0,N/A,,Clear,240,2013-12-04 01:15:00
6:35 PM,48.2,15.6,27,29.69,-9999.0,WSW,25.3,36.8,N/A,,Clear,240,2013-12-04 01:35:00
6:55 PM,47.7,14.9,27,29.69,-9999.0,WSW,21.9,29.9,N/A,,Clear,240,2013-12-04 01:55:00
7:15 PM,48.2,14.2,26,29.70,-9999.0,WSW,19.6,31.1,N/A,,Clear,240,2013-12-04 02:15:00
7:35 PM,46.9,14.5,27,29.71,-9999.0,SW,12.7,23.0,N/A,,Clear,230,2013-12-04 02:35:00
7:55 PM,45.7,14.5,29,29.71,-9999.0,SW,13.8,19.6,N/A,,Clear,220,2013-12-04 02:55:00
8:15 PM,44.8,14.5,30,29.71,-9999.0,SSW,12.7,19.6,N/A,,Clear,210,2013-12-04 03:15:00
8:35 PM,44.2,14.0,30,29.71,-9999.0,SW,12.7,21.9,N/A,,Clear,220,2013-12-04 03:35:00
8:55 PM,43.9,13.6,29,29.70,-9999.0,SW,9.2,17.3,N/A,,Clear,220,2013-12-04 03:55:00
9:15 PM,43.9,13.5,29,29.70,-9999.0,SSW,13.8,20.7,N/A,,Clear,210,2013-12-04 04:15:00
9:35 PM,44.1,12.9,28,29.71,-9999.0,SW,17.3,26.5,N/A,,Clear,220,2013-12-04 04:35:00
9:55 PM,43.7,13.1,29,29.72,-9999.0,SSW,10.4,23.0,N/A,,Clear,210,2013-12-04 04:55:00
10:15 PM,44.2,13.6,29,29.73,-9999.0,SW,15.0,23.0,N/A,,Clear,230,2013-12-04 05:15:00
10:35 PM,43.9,13.5,29,29.73,-9999.0,SW,16.1,21.9,N/A,,Clear,220,2013-12-04 05:35:00
10:55 PM,43.9,13.5,29,29.73,-9999.0,SSW,10.4,23.0,N/A,,Clear,210,2013-12-04 05:55:00
11:15 PM,43.7,13.6,30,29.73,-9999.0,SSW,13.8,23.0,N/A,,Clear,210,2013-12-04 06:15:00
11:35 PM,42.4,13.6,31,29.73,-9999.0,SSW,11.5,18.4,N/A,,Clear,210,2013-12-04 06:35:00
11:55 PM,42.1,14.0,32,29.74,-9999.0,SSW,8.1,16.1,N/A,,Clear,210,2013-12-04 06:55:00